sensor_id;sensor_type;location;lat;lon;timestamp;pressure;altitude;pressure_sealevel;temperature;humidity
72465;BME280;60471;52.150;4.508;2023-04-20T00:00:42;102210.13;;;10.22;38.91
72465;BME280;60471;52.150;4.508;2023-04-20T00:03:09;102208.38;;;10.19;38.65
72465;BME280;60471;52.150;4.508;2023-04-20T00:05:35;102210.13;;;10.22;39.12
72465;BME280;60471;52.150;4.508;2023-04-20T00:08:02;102205.00;;;10.14;38.64
72465;BME280;60471;52.150;4.508;2023-04-20T00:10:28;102197.91;;;10.16;38.94
72465;BME280;60471;52.150;4.508;2023-04-20T00:12:55;102202.50;;;10.09;39.93
72465;BME280;60471;52.150;4.508;2023-04-20T00:15:21;102198.13;;;10.07;40.01
72465;BME280;60471;52.150;4.508;2023-04-20T00:17:48;102188.13;;;9.84;40.08
72465;BME280;60471;52.150;4.508;2023-04-20T00:20:14;102189.25;;;10.11;39.66
72465;BME280;60471;52.150;4.508;2023-04-20T00:22:41;102182.09;;;10.16;39.65
72465;BME280;60471;52.150;4.508;2023-04-20T00:25:10;102191.34;;;9.97;39.98
72465;BME280;60471;52.150;4.508;2023-04-20T00:27:36;102185.78;;;10.09;39.46
72465;BME280;60471;52.150;4.508;2023-04-20T00:30:02;102193.94;;;9.98;39.40
72465;BME280;60471;52.150;4.508;2023-04-20T00:32:29;102191.63;;;9.84;39.96
72465;BME280;60471;52.150;4.508;2023-04-20T00:34:55;102182.94;;;9.81;40.21
72465;BME280;60471;52.150;4.508;2023-04-20T00:37:21;102188.31;;;9.76;39.60
72465;BME280;60471;52.150;4.508;2023-04-20T00:39:50;102178.66;;;9.75;40.39
72465;BME280;60471;52.150;4.508;2023-04-20T00:42:17;102179.53;;;9.76;40.00
72465;BME280;60471;52.150;4.508;2023-04-20T00:44:43;102179.94;;;9.59;40.41
72465;BME280;60471;52.150;4.508;2023-04-20T00:47:09;102173.50;;;9.71;40.67
72465;BME280;60471;52.150;4.508;2023-04-20T00:49:35;102174.03;;;9.48;41.50
72465;BME280;60471;52.150;4.508;2023-04-20T00:52:02;102179.50;;;9.39;41.67
72465;BME280;60471;52.150;4.508;2023-04-20T00:54:29;102170.72;;;9.38;42.15
72465;BME280;60471;52.150;4.508;2023-04-20T00:56:57;102167.28;;;9.35;42.89
72465;BME280;60471;52.150;4.508;2023-04-20T00:59:24;102167.25;;;9.36;42.81
72465;BME280;60471;52.150;4.508;2023-04-20T01:01:50;102155.19;;;9.26;43.35
72465;BME280;60471;52.150;4.508;2023-04-20T01:04:17;102154.34;;;9.22;44.09
72465;BME280;60471;52.150;4.508;2023-04-20T01:06:43;102154.22;;;9.30;43.99
72465;BME280;60471;52.150;4.508;2023-04-20T01:09:10;102147.94;;;9.36;44.79
72465;BME280;60471;52.150;4.508;2023-04-20T01:11:38;102148.91;;;9.32;44.53
72465;BME280;60471;52.150;4.508;2023-04-20T01:14:04;102143.81;;;9.22;45.24
72465;BME280;60471;52.150;4.508;2023-04-20T01:16:30;102140.41;;;9.19;46.00
72465;BME280;60471;52.150;4.508;2023-04-20T01:18:57;102132.56;;;9.16;47.25
72465;BME280;60471;52.150;4.508;2023-04-20T01:21:23;102126.28;;;9.21;46.95
72465;BME280;60471;52.150;4.508;2023-04-20T01:23:49;102117.59;;;9.18;47.85
72465;BME280;60471;52.150;4.508;2023-04-20T01:26:17;102113.25;;;9.17;47.77
72465;BME280;60471;52.150;4.508;2023-04-20T01:28:44;102115.97;;;9.12;48.02
72465;BME280;60471;52.150;4.508;2023-04-20T01:31:12;102102.75;;;9.15;48.43
72465;BME280;60471;52.150;4.508;2023-04-20T01:33:39;102098.50;;;9.08;49.28
72465;BME280;60471;52.150;4.508;2023-04-20T01:36:06;102091.44;;;9.10;49.41
72465;BME280;60471;52.150;4.508;2023-04-20T01:38:33;102094.91;;;9.12;49.35
72465;BME280;60471;52.150;4.508;2023-04-20T01:41:02;102096.09;;;8.97;50.34
72465;BME280;60471;52.150;4.508;2023-04-20T01:43:33;102089.88;;;9.00;50.43
72465;BME280;60471;52.150;4.508;2023-04-20T01:46:00;102086.22;;;9.07;50.07
72465;BME280;60471;52.150;4.508;2023-04-20T01:48:27;102080.94;;;9.09;49.88
72465;BME280;60471;52.150;4.508;2023-04-20T01:50:54;102085.56;;;8.97;51.15
72465;BME280;60471;52.150;4.508;2023-04-20T01:53:20;102079.53;;;8.92;51.62
72465;BME280;60471;52.150;4.508;2023-04-20T01:55:48;102076.72;;;9.00;51.37
72465;BME280;60471;52.150;4.508;2023-04-20T01:58:15;102082.03;;;8.98;51.76
72465;BME280;60471;52.150;4.508;2023-04-20T02:00:42;102079.59;;;8.91;52.57
72465;BME280;60471;52.150;4.508;2023-04-20T02:03:08;102078.88;;;8.83;53.28
72465;BME280;60471;52.150;4.508;2023-04-20T02:05:35;102074.31;;;8.91;53.35
72465;BME280;60471;52.150;4.508;2023-04-20T02:08:02;102072.38;;;8.99;53.85
72465;BME280;60471;52.150;4.508;2023-04-20T02:10:29;102068.00;;;8.98;54.50
72465;BME280;60471;52.150;4.508;2023-04-20T02:12:55;102059.34;;;8.93;54.53
72465;BME280;60471;52.150;4.508;2023-04-20T02:15:21;102056.84;;;8.87;54.94
72465;BME280;60471;52.150;4.508;2023-04-20T02:17:47;102059.31;;;8.94;54.87
72465;BME280;60471;52.150;4.508;2023-04-20T02:20:17;102052.28;;;8.95;54.67
72465;BME280;60471;52.150;4.508;2023-04-20T02:22:46;102058.78;;;8.77;55.92
72465;BME280;60471;52.150;4.508;2023-04-20T02:25:13;102058.16;;;8.66;56.16
72465;BME280;60471;52.150;4.508;2023-04-20T02:27:40;102040.44;;;8.74;55.94
72465;BME280;60471;52.150;4.508;2023-04-20T02:30:07;102044.69;;;8.81;55.76
72465;BME280;60471;52.150;4.508;2023-04-20T02:32:33;102039.47;;;8.80;55.96
72465;BME280;60471;52.150;4.508;2023-04-20T02:34:59;102039.66;;;8.70;56.44
72465;BME280;60471;52.150;4.508;2023-04-20T02:37:26;102040.78;;;8.59;57.04
72465;BME280;60471;52.150;4.508;2023-04-20T02:39:52;102027.31;;;8.73;56.87
72465;BME280;60471;52.150;4.508;2023-04-20T02:42:18;102029.19;;;8.66;56.97
72465;BME280;60471;52.150;4.508;2023-04-20T02:44:45;102024.84;;;8.65;56.92
72465;BME280;60471;52.150;4.508;2023-04-20T02:47:11;102025.66;;;8.68;57.00
72465;BME280;60471;52.150;4.508;2023-04-20T02:49:37;102023.03;;;8.67;57.41
72465;BME280;60471;52.150;4.508;2023-04-20T02:52:04;102027.16;;;8.79;57.13
72465;BME280;60471;52.150;4.508;2023-04-20T02:54:30;102021.13;;;8.75;57.36
72465;BME280;60471;52.150;4.508;2023-04-20T02:56:56;102027.97;;;8.84;57.34
72465;BME280;60471;52.150;4.508;2023-04-20T02:59:23;102015.75;;;8.81;57.74
72465;BME280;60471;52.150;4.508;2023-04-20T03:01:49;102017.69;;;8.71;58.32
72465;BME280;60471;52.150;4.508;2023-04-20T03:04:16;102016.88;;;8.68;58.86
72465;BME280;60471;52.150;4.508;2023-04-20T03:06:42;102019.88;;;8.93;58.40
72465;BME280;60471;52.150;4.508;2023-04-20T03:09:08;102017.81;;;9.06;58.25
72465;BME280;60471;52.150;4.508;2023-04-20T03:11:35;102013.50;;;9.03;57.96
72465;BME280;60471;52.150;4.508;2023-04-20T03:14:01;102016.06;;;9.06;58.27
72465;BME280;60471;52.150;4.508;2023-04-20T03:16:27;102002.38;;;8.90;58.77
72465;BME280;60471;52.150;4.508;2023-04-20T03:18:53;102011.34;;;8.82;59.35
72465;BME280;60471;52.150;4.508;2023-04-20T03:21:20;102004.38;;;8.79;59.57
72465;BME280;60471;52.150;4.508;2023-04-20T03:23:46;101995.47;;;8.85;59.42
72465;BME280;60471;52.150;4.508;2023-04-20T03:26:12;101998.41;;;8.71;59.96
72465;BME280;60471;52.150;4.508;2023-04-20T03:28:40;101990.53;;;8.71;60.16
72465;BME280;60471;52.150;4.508;2023-04-20T03:31:06;101987.56;;;8.85;60.39
72465;BME280;60471;52.150;4.508;2023-04-20T03:33:32;101984.94;;;8.85;60.05
72465;BME280;60471;52.150;4.508;2023-04-20T03:35:59;101984.81;;;8.91;60.34
72465;BME280;60471;52.150;4.508;2023-04-20T03:38:25;101973.81;;;9.11;59.55
72465;BME280;60471;52.150;4.508;2023-04-20T03:40:51;101981.69;;;9.12;59.46
72465;BME280;60471;52.150;4.508;2023-04-20T03:43:17;101977.91;;;9.22;59.16
72465;BME280;60471;52.150;4.508;2023-04-20T03:45:43;101972.47;;;9.30;59.33
72465;BME280;60471;52.150;4.508;2023-04-20T03:48:10;101964.06;;;9.50;58.10
72465;BME280;60471;52.150;4.508;2023-04-20T03:50:36;101958.09;;;9.43;58.54
72465;BME280;60471;52.150;4.508;2023-04-20T03:53:02;101952.75;;;9.46;58.45
72465;BME280;60471;52.150;4.508;2023-04-20T03:55:28;101952.59;;;9.52;57.64
72465;BME280;60471;52.150;4.508;2023-04-20T03:57:54;101955.25;;;9.51;57.77
72465;BME280;60471;52.150;4.508;2023-04-20T04:00:21;101946.34;;;9.56;57.45
72465;BME280;60471;52.150;4.508;2023-04-20T04:02:47;101937.63;;;9.53;57.55
72465;BME280;60471;52.150;4.508;2023-04-20T04:05:13;101932.91;;;9.66;56.74
72465;BME280;60471;52.150;4.508;2023-04-20T04:07:39;101936.44;;;9.65;56.74
72465;BME280;60471;52.150;4.508;2023-04-20T04:10:06;101928.09;;;9.81;55.76
72465;BME280;60471;52.150;4.508;2023-04-20T04:12:32;101932.13;;;9.95;55.64
72465;BME280;60471;52.150;4.508;2023-04-20T04:14:59;101933.78;;;9.99;55.09
72465;BME280;60471;52.150;4.508;2023-04-20T04:17:25;101929.41;;;9.98;55.21
72465;BME280;60471;52.150;4.508;2023-04-20T04:19:51;101931.50;;;9.85;55.90
72465;BME280;60471;52.150;4.508;2023-04-20T04:22:17;101923.59;;;9.85;56.04
72465;BME280;60471;52.150;4.508;2023-04-20T04:24:43;101923.41;;;9.93;56.43
72465;BME280;60471;52.150;4.508;2023-04-20T04:27:10;101919.19;;;9.85;56.68
72465;BME280;60471;52.150;4.508;2023-04-20T04:29:38;101911.69;;;10.03;56.45
72465;BME280;60471;52.150;4.508;2023-04-20T04:32:06;101918.53;;;10.08;56.50
72465;BME280;60471;52.150;4.508;2023-04-20T04:34:33;101917.69;;;10.08;56.73
72465;BME280;60471;52.150;4.508;2023-04-20T04:36:59;101904.28;;;10.15;56.30
72465;BME280;60471;52.150;4.508;2023-04-20T04:39:26;101904.44;;;10.11;56.82
72465;BME280;60471;52.150;4.508;2023-04-20T04:41:53;101901.50;;;10.20;56.59
72465;BME280;60471;52.150;4.508;2023-04-20T04:44:19;101892.81;;;10.16;56.59
72465;BME280;60471;52.150;4.508;2023-04-20T04:46:46;101892.59;;;10.26;56.49
72465;BME280;60471;52.150;4.508;2023-04-20T04:49:12;101888.00;;;10.32;56.13
72465;BME280;60471;52.150;4.508;2023-04-20T04:51:38;101882.75;;;10.32;56.31
72465;BME280;60471;52.150;4.508;2023-04-20T04:54:05;101882.00;;;10.27;55.98
72465;BME280;60471;52.150;4.508;2023-04-20T04:56:31;101883.28;;;10.12;56.43
72465;BME280;60471;52.150;4.508;2023-04-20T04:58:57;101888.81;;;10.03;57.10
72465;BME280;60471;52.150;4.508;2023-04-20T05:01:23;101879.19;;;10.02;57.23
72465;BME280;60471;52.150;4.508;2023-04-20T05:03:49;101882.47;;;10.10;57.09
72465;BME280;60471;52.150;4.508;2023-04-20T05:06:16;101882.91;;;10.26;56.52
72465;BME280;60471;52.150;4.508;2023-04-20T05:08:42;101880.31;;;10.25;57.03
72465;BME280;60471;52.150;4.508;2023-04-20T05:11:08;101879.53;;;10.21;57.50
72465;BME280;60471;52.150;4.508;2023-04-20T05:13:35;101880.66;;;10.12;57.80
72465;BME280;60471;52.150;4.508;2023-04-20T05:16:01;101873.28;;;10.25;57.47
72465;BME280;60471;52.150;4.508;2023-04-20T05:18:27;101875.00;;;10.26;57.78
72465;BME280;60471;52.150;4.508;2023-04-20T05:20:53;101871.53;;;10.24;58.08
72465;BME280;60471;52.150;4.508;2023-04-20T05:23:20;101875.28;;;10.15;58.94
72465;BME280;60471;52.150;4.508;2023-04-20T05:25:46;101872.09;;;10.04;59.29
72465;BME280;60471;52.150;4.508;2023-04-20T05:28:12;101866.59;;;10.12;59.63
72465;BME280;60471;52.150;4.508;2023-04-20T05:30:38;101871.28;;;10.02;59.99
72465;BME280;60471;52.150;4.508;2023-04-20T05:33:05;101864.41;;;9.97;60.92
72465;BME280;60471;52.150;4.508;2023-04-20T05:35:31;101854.22;;;10.14;60.65
72465;BME280;60471;52.150;4.508;2023-04-20T05:37:57;101846.88;;;10.25;60.32
72465;BME280;60471;52.150;4.508;2023-04-20T05:40:27;101855.66;;;10.26;60.78
72465;BME280;60471;52.150;4.508;2023-04-20T05:42:53;101850.50;;;10.21;61.14
72465;BME280;60471;52.150;4.508;2023-04-20T05:45:19;101850.22;;;10.32;60.89
72465;BME280;60471;52.150;4.508;2023-04-20T05:47:55;101844.03;;;10.33;60.88
72465;BME280;60471;52.150;4.508;2023-04-20T05:50:23;101851.78;;;10.37;60.75
72465;BME280;60471;52.150;4.508;2023-04-20T05:52:51;101842.19;;;10.35;60.82
72465;BME280;60471;52.150;4.508;2023-04-20T05:55:18;101843.06;;;10.35;60.98
72465;BME280;60471;52.150;4.508;2023-04-20T05:57:45;101842.78;;;10.44;60.32
72465;BME280;60471;52.150;4.508;2023-04-20T06:00:14;101846.00;;;10.54;60.58
72465;BME280;60471;52.150;4.508;2023-04-20T06:02:41;101841.81;;;10.47;60.24
72465;BME280;60471;52.150;4.508;2023-04-20T06:05:09;101853.13;;;10.51;60.60
72465;BME280;60471;52.150;4.508;2023-04-20T06:07:35;101851.16;;;10.57;60.36
72465;BME280;60471;52.150;4.508;2023-04-20T06:10:02;101846.00;;;10.54;60.19
72465;BME280;60471;52.150;4.508;2023-04-20T06:12:30;101851.06;;;10.60;60.27
72465;BME280;60471;52.150;4.508;2023-04-20T06:14:56;101857.09;;;10.65;59.77
72465;BME280;60471;52.150;4.508;2023-04-20T06:17:23;101852.91;;;10.58;60.33
72465;BME280;60471;52.150;4.508;2023-04-20T06:19:50;101854.19;;;10.45;60.20
72465;BME280;60471;52.150;4.508;2023-04-20T06:22:17;101857.16;;;10.34;60.05
72465;BME280;60471;52.150;4.508;2023-04-20T06:24:44;101854.84;;;10.53;59.69
72465;BME280;60471;52.150;4.508;2023-04-20T06:27:11;101846.50;;;10.37;59.30
72465;BME280;60471;52.150;4.508;2023-04-20T06:29:37;101846.19;;;10.48;57.91
72465;BME280;60471;52.150;4.508;2023-04-20T06:32:04;101845.38;;;10.46;58.34
72465;BME280;60471;52.150;4.508;2023-04-20T06:34:30;101847.44;;;10.64;57.63
72465;BME280;60471;52.150;4.508;2023-04-20T06:36:56;101833.66;;;10.81;57.52
72465;BME280;60471;52.150;4.508;2023-04-20T06:39:22;101843.44;;;10.79;57.15
72465;BME280;60471;52.150;4.508;2023-04-20T06:41:48;101840.94;;;10.74;57.26
72465;BME280;60471;52.150;4.508;2023-04-20T06:44:15;101843.81;;;10.93;56.92
72465;BME280;60471;52.150;4.508;2023-04-20T06:46:41;101838.34;;;10.99;57.10
72465;BME280;60471;52.150;4.508;2023-04-20T06:49:07;101833.16;;;11.23;56.23
72465;BME280;60471;52.150;4.508;2023-04-20T06:51:33;101829.78;;;11.18;56.26
72465;BME280;60471;52.150;4.508;2023-04-20T06:53:59;101826.75;;;11.30;56.47
72465;BME280;60471;52.150;4.508;2023-04-20T06:56:26;101833.56;;;11.36;56.61
72465;BME280;60471;52.150;4.508;2023-04-20T06:58:52;101818.44;;;11.41;55.79
72465;BME280;60471;52.150;4.508;2023-04-20T07:01:18;101805.16;;;11.42;56.21
72465;BME280;60471;52.150;4.508;2023-04-20T07:03:44;101800.22;;;11.56;56.58
72465;BME280;60471;52.150;4.508;2023-04-20T07:06:14;101796.44;;;11.64;55.83
72465;BME280;60471;52.150;4.508;2023-04-20T07:08:41;101809.16;;;11.77;55.64
72465;BME280;60471;52.150;4.508;2023-04-20T07:11:07;101816.22;;;11.53;55.97
72465;BME280;60471;52.150;4.508;2023-04-20T07:13:34;101814.50;;;11.76;55.77
72465;BME280;60471;52.150;4.508;2023-04-20T07:16:00;101810.84;;;11.80;55.51
72465;BME280;60471;52.150;4.508;2023-04-20T07:18:26;101812.75;;;12.00;54.76
72465;BME280;60471;52.150;4.508;2023-04-20T07:20:53;101809.59;;;11.90;54.82
72465;BME280;60471;52.150;4.508;2023-04-20T07:23:19;101804.06;;;11.71;54.83
72465;BME280;60471;52.150;4.508;2023-04-20T07:25:46;101807.88;;;11.39;55.50
72465;BME280;60471;52.150;4.508;2023-04-20T07:28:12;101802.47;;;11.67;54.81
72465;BME280;60471;52.150;4.508;2023-04-20T07:30:39;101804.19;;;11.45;54.85
72465;BME280;60471;52.150;4.508;2023-04-20T07:33:05;101816.00;;;11.35;54.89
72465;BME280;60471;52.150;4.508;2023-04-20T07:35:32;101819.28;;;11.41;54.42
72465;BME280;60471;52.150;4.508;2023-04-20T07:37:58;101805.25;;;10.89;55.69
72465;BME280;60471;52.150;4.508;2023-04-20T07:40:24;101809.44;;;10.95;55.57
72465;BME280;60471;52.150;4.508;2023-04-20T07:42:50;101806.31;;;10.84;55.74
72465;BME280;60471;52.150;4.508;2023-04-20T07:45:17;101816.13;;;11.05;54.87
72465;BME280;60471;52.150;4.508;2023-04-20T07:47:45;101805.69;;;11.27;54.07
72465;BME280;60471;52.150;4.508;2023-04-20T07:50:12;101804.97;;;11.47;52.83
72465;BME280;60471;52.150;4.508;2023-04-20T07:52:38;101806.16;;;11.38;53.12
72465;BME280;60471;52.150;4.508;2023-04-20T07:55:04;101782.88;;;11.24;53.61
72465;BME280;60471;52.150;4.508;2023-04-20T07:57:33;101794.31;;;11.25;52.74
72465;BME280;60471;52.150;4.508;2023-04-20T08:00:00;101795.50;;;11.41;52.67
72465;BME280;60471;52.150;4.508;2023-04-20T08:02:26;101803.16;;;11.49;53.12
72465;BME280;60471;52.150;4.508;2023-04-20T08:04:52;101816.16;;;11.30;54.14
72465;BME280;60471;52.150;4.508;2023-04-20T08:07:19;101813.91;;;11.19;55.39
72465;BME280;60471;52.150;4.508;2023-04-20T08:09:45;101813.00;;;10.94;56.56
72465;BME280;60471;52.150;4.508;2023-04-20T08:12:11;101808.06;;;10.83;57.56
72465;BME280;60471;52.150;4.508;2023-04-20T08:14:37;101803.09;;;10.74;58.54
72465;BME280;60471;52.150;4.508;2023-04-20T08:17:05;101811.00;;;10.74;59.18
72465;BME280;60471;52.150;4.508;2023-04-20T08:19:32;101819.66;;;10.79;60.13
72465;BME280;60471;52.150;4.508;2023-04-20T08:21:58;101803.03;;;10.77;60.58
72465;BME280;60471;52.150;4.508;2023-04-20T08:24:24;101807.13;;;10.59;61.17
72465;BME280;60471;52.150;4.508;2023-04-20T08:26:50;101803.44;;;10.37;61.52
72465;BME280;60471;52.150;4.508;2023-04-20T08:29:17;101800.72;;;10.10;62.46
72465;BME280;60471;52.150;4.508;2023-04-20T08:31:43;101803.53;;;10.04;62.50
72465;BME280;60471;52.150;4.508;2023-04-20T08:34:10;101799.81;;;10.11;62.80
72465;BME280;60471;52.150;4.508;2023-04-20T08:36:37;101806.28;;;10.01;63.77
72465;BME280;60471;52.150;4.508;2023-04-20T08:39:17;101813.97;;;10.07;63.81
72465;BME280;60471;52.150;4.508;2023-04-20T08:41:44;101821.56;;;10.18;63.87
72465;BME280;60471;52.150;4.508;2023-04-20T08:44:12;101814.78;;;10.11;64.38
72465;BME280;60471;52.150;4.508;2023-04-20T08:46:40;101815.63;;;9.82;65.69
72465;BME280;60471;52.150;4.508;2023-04-20T08:49:14;101801.94;;;9.69;67.01
72465;BME280;60471;52.150;4.508;2023-04-20T08:51:43;101791.81;;;9.55;67.95
72465;BME280;60471;52.150;4.508;2023-04-20T08:54:11;101799.22;;;9.41;67.91
72465;BME280;60471;52.150;4.508;2023-04-20T08:56:39;101793.22;;;9.67;67.13
72465;BME280;60471;52.150;4.508;2023-04-20T08:59:08;101780.66;;;9.46;66.83
72465;BME280;60471;52.150;4.508;2023-04-20T09:01:40;101777.94;;;9.16;67.15
72465;BME280;60471;52.150;4.508;2023-04-20T09:04:17;101779.06;;;9.08;67.60
72465;BME280;60471;52.150;4.508;2023-04-20T09:06:50;101770.28;;;9.07;68.10
72465;BME280;60471;52.150;4.508;2023-04-20T09:09:19;101775.66;;;9.37;67.34
72465;BME280;60471;52.150;4.508;2023-04-20T09:12:01;101765.75;;;9.14;68.51
72465;BME280;60471;52.150;4.508;2023-04-20T09:14:40;101776.09;;;9.51;67.65
72465;BME280;60471;52.150;4.508;2023-04-20T09:17:18;101782.22;;;9.82;65.99
72465;BME280;60471;52.150;4.508;2023-04-20T09:19:56;101783.69;;;10.22;65.47
72465;BME280;60471;52.150;4.508;2023-04-20T09:22:33;101782.78;;;10.23;64.86
72465;BME280;60471;52.150;4.508;2023-04-20T09:25:15;101778.94;;;10.04;65.15
72465;BME280;60471;52.150;4.508;2023-04-20T09:27:42;101780.19;;;10.22;64.87
72465;BME280;60471;52.150;4.508;2023-04-20T09:30:09;101775.88;;;9.90;65.97
72465;BME280;60471;52.150;4.508;2023-04-20T09:32:36;101758.31;;;9.59;67.86
72465;BME280;60471;52.150;4.508;2023-04-20T09:35:02;101755.69;;;9.88;67.83
72465;BME280;60471;52.150;4.508;2023-04-20T09:37:28;101753.88;;;9.91;67.90
72465;BME280;60471;52.150;4.508;2023-04-20T09:39:58;101752.56;;;10.04;67.70
72465;BME280;60471;52.150;4.508;2023-04-20T09:42:27;101752.41;;;10.38;66.26
72465;BME280;60471;52.150;4.508;2023-04-20T09:44:54;101756.75;;;10.39;65.81
72465;BME280;60471;52.150;4.508;2023-04-20T09:47:22;101758.78;;;10.31;65.26
72465;BME280;60471;52.150;4.508;2023-04-20T09:49:50;101758.06;;;9.68;66.90
72465;BME280;60471;52.150;4.508;2023-04-20T09:52:17;101751.88;;;9.69;67.07
72465;BME280;60471;52.150;4.508;2023-04-20T09:54:44;101740.28;;;9.75;66.80
72465;BME280;60471;52.150;4.508;2023-04-20T09:57:12;101720.56;;;9.88;66.32
72465;BME280;60471;52.150;4.508;2023-04-20T09:59:42;101713.69;;;10.10;65.68
72465;BME280;60471;52.150;4.508;2023-04-20T10:02:11;101723.94;;;10.48;64.22
72465;BME280;60471;52.150;4.508;2023-04-20T10:04:55;101737.16;;;10.72;63.30
72465;BME280;60471;52.150;4.508;2023-04-20T10:07:28;101729.47;;;10.91;62.32
72465;BME280;60471;52.150;4.508;2023-04-20T10:10:15;101725.69;;;11.47;61.56
72465;BME280;60471;52.150;4.508;2023-04-20T10:12:52;101728.59;;;11.64;60.79
72465;BME280;60471;52.150;4.508;2023-04-20T10:15:20;101719.38;;;12.19;59.04
72465;BME280;60471;52.150;4.508;2023-04-20T10:17:49;101730.03;;;11.71;59.25
72465;BME280;60471;52.150;4.508;2023-04-20T10:20:21;101713.66;;;11.40;59.71
72465;BME280;60471;52.150;4.508;2023-04-20T10:22:52;101724.09;;;12.33;57.71
72465;BME280;60471;52.150;4.508;2023-04-20T10:25:23;101729.34;;;12.55;56.76
72465;BME280;60471;52.150;4.508;2023-04-20T10:28:00;101722.50;;;12.71;56.50
72465;BME280;60471;52.150;4.508;2023-04-20T10:30:33;101700.84;;;12.82;55.34
72465;BME280;60471;52.150;4.508;2023-04-20T10:33:09;101708.91;;;12.79;55.97
72465;BME280;60471;52.150;4.508;2023-04-20T10:35:44;101699.44;;;13.14;55.33
72465;BME280;60471;52.150;4.508;2023-04-20T10:38:10;101702.53;;;13.24;53.93
72465;BME280;60471;52.150;4.508;2023-04-20T10:40:37;101707.13;;;13.00;54.23
72465;BME280;60471;52.150;4.508;2023-04-20T10:43:03;101718.31;;;13.06;54.37
72465;BME280;60471;52.150;4.508;2023-04-20T10:45:34;101720.97;;;12.66;54.83
72465;BME280;60471;52.150;4.508;2023-04-20T10:48:08;101705.75;;;12.71;54.68
72465;BME280;60471;52.150;4.508;2023-04-20T10:50:35;101700.97;;;13.20;52.97
72465;BME280;60471;52.150;4.508;2023-04-20T10:53:03;101706.97;;;13.23;53.27
72465;BME280;60471;52.150;4.508;2023-04-20T10:55:29;101706.38;;;13.37;52.87
72465;BME280;60471;52.150;4.508;2023-04-20T10:57:56;101710.41;;;13.83;51.41
72465;BME280;60471;52.150;4.508;2023-04-20T11:00:24;101704.41;;;14.69;49.08
72465;BME280;60471;52.150;4.508;2023-04-20T11:02:54;101696.47;;;15.35;46.86
72465;BME280;60471;52.150;4.508;2023-04-20T11:05:24;101694.09;;;14.81;47.36
72465;BME280;60471;52.150;4.508;2023-04-20T11:07:56;101692.44;;;13.88;49.10
72465;BME280;60471;52.150;4.508;2023-04-20T11:10:37;101684.22;;;14.83;47.87
72465;BME280;60471;52.150;4.508;2023-04-20T11:13:05;101696.25;;;14.90;48.26
72465;BME280;60471;52.150;4.508;2023-04-20T11:15:35;101694.13;;;15.62;45.88
72465;BME280;60471;52.150;4.508;2023-04-20T11:18:10;101692.59;;;15.41;46.29
72465;BME280;60471;52.150;4.508;2023-04-20T11:20:48;101686.38;;;16.05;45.22
72465;BME280;60471;52.150;4.508;2023-04-20T11:23:18;101680.22;;;17.80;41.48
72465;BME280;60471;52.150;4.508;2023-04-20T11:25:54;101669.34;;;16.23;44.38
72465;BME280;60471;52.150;4.508;2023-04-20T11:28:21;101672.41;;;16.17;44.43
72465;BME280;60471;52.150;4.508;2023-04-20T11:30:49;101660.94;;;16.61;42.99
72465;BME280;60471;52.150;4.508;2023-04-20T11:33:26;101654.03;;;17.01;42.33
72465;BME280;60471;52.150;4.508;2023-04-20T11:35:55;101646.69;;;19.19;38.94
72465;BME280;60471;52.150;4.508;2023-04-20T11:38:40;101635.59;;;20.10;36.39
72465;BME280;60471;52.150;4.508;2023-04-20T11:41:06;101635.00;;;20.41;35.11
72465;BME280;60471;52.150;4.508;2023-04-20T11:43:34;101629.91;;;20.49;34.61
72465;BME280;60471;52.150;4.508;2023-04-20T11:46:00;101640.97;;;17.25;40.08
72465;BME280;60471;52.150;4.508;2023-04-20T11:48:30;101636.63;;;16.96;40.91
72465;BME280;60471;52.150;4.508;2023-04-20T11:50:57;101637.84;;;18.01;39.34
72465;BME280;60471;52.150;4.508;2023-04-20T11:53:23;101634.75;;;17.94;40.01
72465;BME280;60471;52.150;4.508;2023-04-20T11:55:49;101635.09;;;17.76;40.45
72465;BME280;60471;52.150;4.508;2023-04-20T11:58:16;101642.41;;;16.44;42.36
72465;BME280;60471;52.150;4.508;2023-04-20T12:00:42;101636.22;;;16.13;43.94
72465;BME280;60471;52.150;4.508;2023-04-20T12:03:08;101639.69;;;15.36;45.23
72465;BME280;60471;52.150;4.508;2023-04-20T12:05:34;101629.22;;;15.49;44.77
72465;BME280;60471;52.150;4.508;2023-04-20T12:08:00;101626.53;;;15.18;45.04
72465;BME280;60471;52.150;4.508;2023-04-20T12:10:26;101629.13;;;13.45;48.73
72465;BME280;60471;52.150;4.508;2023-04-20T12:12:53;101634.31;;;13.48;48.93
72465;BME280;60471;52.150;4.508;2023-04-20T12:15:19;101618.06;;;13.73;48.83
72465;BME280;60471;52.150;4.508;2023-04-20T12:17:45;101631.72;;;13.27;49.95
72465;BME280;60471;52.150;4.508;2023-04-20T12:20:12;101616.28;;;16.65;42.98
72465;BME280;60471;52.150;4.508;2023-04-20T12:22:39;101606.69;;;18.92;38.28
72465;BME280;60471;52.150;4.508;2023-04-20T12:25:06;101597.78;;;19.54;37.21
72465;BME280;60471;52.150;4.508;2023-04-20T12:27:32;101598.06;;;22.00;33.21
72465;BME280;60471;52.150;4.508;2023-04-20T12:29:58;101594.34;;;20.70;34.16
72465;BME280;60471;52.150;4.508;2023-04-20T12:32:25;101594.81;;;18.45;37.52
72465;BME280;60471;52.150;4.508;2023-04-20T12:34:51;101588.72;;;16.36;42.27
72465;BME280;60471;52.150;4.508;2023-04-20T12:37:18;101605.63;;;16.50;41.82
72465;BME280;60471;52.150;4.508;2023-04-20T12:39:45;101605.25;;;16.71;41.72
72465;BME280;60471;52.150;4.508;2023-04-20T12:42:11;101601.94;;;16.23;42.72
72465;BME280;60471;52.150;4.508;2023-04-20T12:44:37;101587.66;;;14.32;47.22
72465;BME280;60471;52.150;4.508;2023-04-20T12:47:04;101604.78;;;13.37;49.91
72465;BME280;60471;52.150;4.508;2023-04-20T12:49:30;101592.13;;;13.24;50.69
72465;BME280;60471;52.150;4.508;2023-04-20T12:51:56;101603.91;;;13.17;50.92
72465;BME280;60471;52.150;4.508;2023-04-20T12:54:22;101599.00;;;14.53;48.06
72465;BME280;60471;52.150;4.508;2023-04-20T12:56:49;101587.22;;;19.03;38.92